createdAt,value
2023-01-03T00:02:21.615Z,0.00
2023-01-03T00:04:50.358Z,0.16
2023-01-03T00:07:34.366Z,0.19
2023-01-03T00:10:04.599Z,0.18
2023-01-03T00:12:35.220Z,0.21
2023-01-03T00:15:06.329Z,0.36
2023-01-03T00:17:34.612Z,0.13
2023-01-03T00:20:03.186Z,0.21
2023-01-03T00:22:33.450Z,0.01
2023-01-03T00:25:02.220Z,-0.04
2023-01-03T00:27:31.029Z,0.09
2023-01-03T00:29:59.737Z,0.14
2023-01-03T00:32:30.029Z,0.11
2023-01-03T00:35:04.572Z,0.18
2023-01-03T00:37:33.782Z,0.25
2023-01-03T00:40:02.872Z,0.16
2023-01-03T00:42:52.056Z,0.20
2023-01-03T00:45:24.318Z,0.20
2023-01-03T00:47:55.558Z,0.20
2023-01-03T00:50:24.218Z,0.26
2023-01-03T00:52:52.694Z,0.12
2023-01-03T00:55:21.179Z,0.09
2023-01-03T00:57:49.783Z,0.09
2023-01-03T01:00:18.488Z,0.15
2023-01-03T01:02:47.215Z,0.23
2023-01-03T01:05:17.571Z,0.20
2023-01-03T01:07:46.431Z,0.51
2023-01-03T01:10:15.162Z,0.96
2023-01-03T01:12:43.660Z,1.23
2023-01-03T01:15:13.022Z,1.61
2023-01-03T01:17:42.077Z,1.82
2023-01-03T01:20:11.198Z,2.41
2023-01-03T01:22:41.445Z,2.62
2023-01-03T01:25:11.374Z,2.51
2023-01-03T01:27:39.851Z,3.07
2023-01-03T01:30:09.393Z,2.98
2023-01-03T01:32:37.960Z,3.11
2023-01-03T01:35:07.055Z,3.19
2023-01-03T01:37:35.638Z,3.30
2023-01-03T01:40:06.179Z,3.22
2023-01-03T01:42:52.118Z,3.45
2023-01-03T01:45:20.663Z,3.48
2023-01-03T01:47:53.978Z,3.56
2023-01-03T01:50:26.363Z,3.73
2023-01-03T01:52:59.294Z,4.00
2023-01-03T01:55:33.197Z,3.91
2023-01-03T01:58:02.839Z,4.07
2023-01-03T02:00:31.889Z,4.11
2023-01-03T02:03:00.654Z,4.10
2023-01-03T02:05:31.269Z,4.26
2023-01-03T02:08:00.639Z,4.20
2023-01-03T02:10:42.742Z,4.20
2023-01-03T02:13:23.431Z,4.45
2023-01-03T02:16:03.093Z,4.55
2023-01-03T02:18:41.828Z,4.64
2023-01-03T02:22:08.541Z,4.50
2023-01-03T02:24:55.389Z,4.49
2023-01-03T02:27:56.294Z,4.69
2023-01-03T02:30:39.172Z,4.59
2023-01-03T02:33:23.448Z,4.77
2023-01-03T02:36:02.403Z,4.74
2023-01-03T02:38:41.362Z,4.93
2023-01-03T02:41:17.186Z,4.77
2023-01-03T02:43:55.217Z,4.91
2023-01-03T02:46:28.823Z,4.92
2023-01-03T02:49:00.723Z,4.90
2023-01-03T02:51:33.378Z,4.96
2023-01-03T02:54:04.782Z,4.98
2023-01-03T02:56:39.464Z,4.91
2023-01-03T02:59:13.331Z,4.82
2023-01-03T03:01:45.835Z,4.73
2023-01-03T03:04:16.077Z,4.70
2023-01-03T03:06:50.178Z,4.57
2023-01-03T03:09:18.693Z,4.51
2023-01-03T03:12:05.408Z,4.41
2023-01-03T03:14:38.418Z,4.30
2023-01-03T03:17:12.801Z,4.27
2023-01-03T03:20:03.160Z,4.21
2023-01-03T03:22:58.021Z,4.08
2023-01-03T03:25:30.431Z,4.00
2023-01-03T03:28:19.729Z,4.00
2023-01-03T03:30:52.478Z,3.82
2023-01-03T03:33:25.236Z,3.79
2023-01-03T03:36:01.516Z,3.77
2023-01-03T03:38:35.754Z,3.61
2023-01-03T03:41:30.267Z,3.60
2023-01-03T03:44:25.064Z,3.55
2023-01-03T03:47:04.307Z,3.49
2023-01-03T03:49:41.373Z,3.41
2023-01-03T03:52:15.184Z,3.39
2023-01-03T03:54:48.374Z,3.36
2023-01-03T03:57:23.960Z,3.32
2023-01-03T03:59:57.213Z,3.34
2023-01-03T04:02:27.898Z,3.29
2023-01-03T04:05:02.244Z,3.38
2023-01-03T04:07:32.107Z,3.31
2023-01-03T04:10:01.012Z,3.32
2023-01-03T04:12:29.929Z,3.30
2023-01-03T04:14:58.788Z,3.25
2023-01-03T04:17:28.966Z,3.16
2023-01-03T04:19:59.447Z,3.11
2023-01-03T04:22:28.371Z,3.12
2023-01-03T04:24:57.147Z,3.03
2023-01-03T04:27:26.146Z,2.95
2023-01-03T04:29:54.893Z,2.91
2023-01-03T04:32:26.007Z,2.77
2023-01-03T04:34:54.997Z,2.71
2023-01-03T04:37:25.445Z,2.66
2023-01-03T04:39:54.360Z,2.63
2023-01-03T04:42:40.748Z,2.54
2023-01-03T04:45:10.836Z,2.53
2023-01-03T04:47:39.496Z,2.49
2023-01-03T04:50:09.886Z,2.48
2023-01-03T04:52:40.087Z,2.46
2023-01-03T04:55:09.975Z,2.44
2023-01-03T04:57:42.030Z,2.38
2023-01-03T05:00:11.936Z,2.35
2023-01-03T05:02:40.808Z,2.35
2023-01-03T05:05:10.789Z,2.29
2023-01-03T05:07:40.987Z,2.27
2023-01-03T05:10:10.344Z,2.26
2023-01-03T05:12:39.067Z,2.18
2023-01-03T05:15:09.152Z,2.14
2023-01-03T05:17:38.048Z,2.12
2023-01-03T05:20:25.770Z,2.08
2023-01-03T05:23:13.233Z,2.13
2023-01-03T05:25:55.356Z,2.19
2023-01-03T05:28:25.650Z,2.14
2023-01-03T05:30:54.413Z,2.10
2023-01-03T05:33:23.337Z,2.08
2023-01-03T05:35:52.123Z,2.03
2023-01-03T05:38:27.213Z,2.04
2023-01-03T05:40:56.286Z,2.00
2023-01-03T05:43:25.184Z,2.02
2023-01-03T05:45:55.114Z,2.01
2023-01-03T05:48:24.211Z,1.96
2023-01-03T05:50:53.221Z,1.93
2023-01-03T05:53:23.606Z,1.90
2023-01-03T05:55:53.007Z,1.84
2023-01-03T05:58:21.976Z,1.82
2023-01-03T06:00:50.887Z,1.85
2023-01-03T06:03:19.570Z,1.82
2023-01-03T06:05:50.578Z,1.85
2023-01-03T06:08:19.798Z,1.81
2023-01-03T06:10:51.240Z,1.89
2023-01-03T06:13:21.617Z,1.84
2023-01-03T06:16:07.335Z,1.81
2023-01-03T06:18:36.838Z,1.82
2023-01-03T06:21:06.251Z,1.82
2023-01-03T06:23:34.982Z,1.82
2023-01-03T06:26:06.522Z,1.83
2023-01-03T06:28:35.658Z,1.79
2023-01-03T06:31:06.521Z,1.76
2023-01-03T06:33:35.757Z,1.75
2023-01-03T06:36:06.552Z,1.71
2023-01-03T06:38:36.209Z,1.66
2023-01-03T06:41:07.349Z,1.68
2023-01-03T06:43:36.871Z,1.69
2023-01-03T06:46:24.117Z,1.69
2023-01-03T06:49:10.647Z,1.64
2023-01-03T06:51:57.082Z,1.62
2023-01-03T06:54:28.462Z,1.60
2023-01-03T06:56:59.345Z,1.56
2023-01-03T06:59:31.023Z,1.54
2023-01-03T07:01:59.825Z,1.53
2023-01-03T07:04:28.712Z,1.52
2023-01-03T07:06:57.405Z,1.48
2023-01-03T07:09:26.061Z,1.48
2023-01-03T07:11:54.635Z,1.48
2023-01-03T07:14:23.531Z,1.45
2023-01-03T07:16:52.035Z,1.41
2023-01-03T07:19:21.549Z,1.40
2023-01-03T07:21:50.915Z,1.40
2023-01-03T07:24:20.029Z,1.37
2023-01-03T07:26:48.570Z,1.33
2023-01-03T07:29:17.183Z,1.31
2023-01-03T07:31:47.300Z,1.32
2023-01-03T07:34:15.862Z,1.28
2023-01-03T07:36:44.540Z,1.28
2023-01-03T07:39:13.313Z,1.26
2023-01-03T07:41:59.133Z,1.26
2023-01-03T07:44:28.119Z,1.23
2023-01-03T07:46:58.138Z,1.24
2023-01-03T07:49:26.651Z,1.21
2023-01-03T07:51:55.130Z,1.17
2023-01-03T07:54:23.654Z,1.15
2023-01-03T07:56:52.558Z,1.12
2023-01-03T07:59:21.125Z,1.08
2023-01-03T08:01:49.830Z,1.06
2023-01-03T08:04:20.175Z,1.05
2023-01-03T08:06:48.722Z,1.02
2023-01-03T08:09:34.296Z,0.99
2023-01-03T08:12:20.580Z,0.99
2023-01-03T08:14:49.089Z,0.97
2023-01-03T08:17:17.548Z,0.95
2023-01-03T08:19:47.667Z,0.93
2023-01-03T08:22:16.583Z,0.90
2023-01-03T08:24:45.129Z,0.90
2023-01-03T08:27:13.606Z,0.88
2023-01-03T08:29:42.045Z,0.87
2023-01-03T08:32:10.850Z,0.85
2023-01-03T08:34:41.954Z,0.84
2023-01-03T08:37:13.402Z,0.84
2023-01-03T08:39:48.493Z,0.85
2023-01-03T08:42:20.905Z,0.83
2023-01-03T08:44:51.159Z,0.82
2023-01-03T08:47:20.007Z,0.83
2023-01-03T08:49:48.625Z,0.82
2023-01-03T08:52:18.604Z,0.81
2023-01-03T08:54:47.376Z,0.81
2023-01-03T08:57:15.911Z,0.78
2023-01-03T08:59:44.699Z,0.77
2023-01-03T09:02:13.744Z,0.74
2023-01-03T09:04:42.536Z,0.72
2023-01-03T09:07:11.326Z,0.71
2023-01-03T09:09:41.415Z,0.70
2023-01-03T09:12:09.919Z,0.68
2023-01-03T09:14:38.592Z,0.66
2023-01-03T09:17:07.149Z,0.66
2023-01-03T09:19:35.759Z,0.66
2023-01-03T09:22:04.491Z,0.64
2023-01-03T09:24:33.003Z,0.61
2023-01-03T09:27:02.956Z,0.59
2023-01-03T09:29:31.630Z,0.58
2023-01-03T09:32:03.548Z,0.54
2023-01-03T09:34:32.314Z,0.51
2023-01-03T09:37:00.815Z,0.50
2023-01-03T09:39:29.479Z,0.46
2023-01-03T09:42:15.472Z,0.44
2023-01-03T09:44:46.344Z,0.42
2023-01-03T09:47:28.101Z,0.40
2023-01-03T09:50:27.832Z,0.39
2023-01-03T09:53:05.173Z,0.37
2023-01-03T09:56:00.615Z,0.37
2023-01-03T09:58:47.193Z,0.38
2023-01-03T10:01:48.075Z,0.36
2023-01-03T10:04:40.741Z,0.36
2023-01-03T10:07:21.489Z,0.37
2023-01-03T10:09:59.626Z,0.39
2023-01-03T10:12:38.912Z,0.36
2023-01-03T10:15:22.092Z,0.38
2023-01-03T10:18:07.244Z,0.39
2023-01-03T10:20:47.298Z,0.41
2023-01-03T10:23:16.542Z,0.43
2023-01-03T10:25:47.654Z,0.44
2023-01-03T10:28:20.750Z,0.42
2023-01-03T10:31:08.955Z,0.41
2023-01-03T10:33:45.723Z,0.45
2023-01-03T10:36:15.687Z,0.46
2023-01-03T10:38:51.511Z,0.47
2023-01-03T10:41:31.398Z,0.49
2023-01-03T10:44:01.713Z,0.47
2023-01-03T10:46:31.283Z,0.48
2023-01-03T10:49:31.389Z,0.47
2023-01-03T10:52:04.271Z,0.48
2023-01-03T10:54:48.217Z,0.48
2023-01-03T10:57:42.139Z,0.46
2023-01-03T11:00:30.340Z,0.45
2023-01-03T11:03:11.430Z,0.44
2023-01-03T11:05:43.446Z,0.42
2023-01-03T11:08:18.767Z,0.43
2023-01-03T11:10:58.683Z,0.42
2023-01-03T11:13:34.480Z,0.40
2023-01-03T11:16:05.850Z,0.36
2023-01-03T11:18:35.060Z,0.36
2023-01-03T11:21:15.206Z,0.35
2023-01-03T11:23:57.516Z,0.32
2023-01-03T11:26:39.872Z,0.30
2023-01-03T11:29:33.402Z,0.28
2023-01-03T11:32:14.565Z,0.25
2023-01-03T11:35:21.591Z,0.25
2023-01-03T11:37:52.219Z,0.19
2023-01-03T11:40:29.954Z,0.16
2023-01-03T11:43:15.479Z,0.13
2023-01-03T11:46:10.396Z,0.10
2023-01-03T11:48:59.842Z,0.09
2023-01-03T11:51:36.471Z,0.07
2023-01-03T11:54:17.765Z,0.08
2023-01-03T11:56:48.683Z,0.04
2023-01-03T11:59:46.019Z,0.02
2023-01-03T12:02:57.211Z,0.00
2023-01-03T12:05:41.780Z,-0.03
2023-01-03T12:08:45.137Z,-0.03
2023-01-03T12:11:33.360Z,-0.04
2023-01-03T12:14:07.775Z,-0.08
2023-01-03T12:16:41.425Z,-0.10
2023-01-03T12:19:24.371Z,-0.11
2023-01-03T12:21:56.949Z,-0.12
2023-01-03T12:24:34.828Z,-0.17
2023-01-03T12:27:11.274Z,-0.19
2023-01-03T12:29:50.845Z,-0.23
2023-01-03T12:32:26.958Z,-0.28
2023-01-03T12:35:16.537Z,-0.27
2023-01-03T12:37:51.990Z,-0.25
2023-01-03T12:40:27.801Z,-0.26
2023-01-03T12:43:07.232Z,-0.31
2023-01-03T12:45:56.845Z,-0.34
2023-01-03T12:48:41.860Z,-0.35
2023-01-03T12:51:11.243Z,-0.37
2023-01-03T12:53:46.958Z,-0.41
2023-01-03T12:57:01.254Z,-0.45
2023-01-03T12:59:53.539Z,-0.42
2023-01-03T13:02:36.194Z,-0.43
2023-01-03T13:05:18.361Z,-0.47
2023-01-03T13:07:53.189Z,-0.46
2023-01-03T13:10:26.855Z,-0.51
2023-01-03T13:12:56.182Z,-0.52
2023-01-03T13:15:36.163Z,-0.52
2023-01-03T13:18:36.055Z,-0.52
2023-01-03T13:22:02.488Z,-0.55
2023-01-03T13:24:46.319Z,-0.55
2023-01-03T13:27:38.731Z,-0.57
2023-01-03T13:30:23.591Z,-0.55
2023-01-03T13:33:07.867Z,-0.56
2023-01-03T13:35:38.220Z,-0.57
2023-01-03T13:38:29.836Z,-0.58
2023-01-03T13:41:19.156Z,-0.59
2023-01-03T13:43:52.543Z,-0.60
2023-01-03T13:46:26.165Z,-0.61
2023-01-03T13:48:59.757Z,-0.62
2023-01-03T13:51:48.589Z,-0.63
2023-01-03T13:54:59.406Z,-0.63
2023-01-03T13:57:36.762Z,-0.63
2023-01-03T14:00:15.574Z,-0.64
2023-01-03T14:03:25.972Z,-0.63
2023-01-03T14:06:10.691Z,-0.66
2023-01-03T14:09:16.338Z,-0.69
2023-01-03T14:12:13.396Z,-0.69
2023-01-03T14:14:44.360Z,-0.69
2023-01-03T14:17:20.101Z,-0.69
2023-01-03T14:19:52.377Z,-0.70
2023-01-03T14:22:31.320Z,-0.72
2023-01-03T14:25:00.663Z,-0.72
2023-01-03T14:27:36.863Z,-0.72
2023-01-03T14:30:06.647Z,-0.73
2023-01-03T14:32:37.726Z,-0.74
2023-01-03T14:35:07.268Z,-0.75
2023-01-03T14:37:37.539Z,-0.76
2023-01-03T14:40:08.927Z,-0.76
2023-01-03T14:42:37.739Z,-0.74
2023-01-03T14:45:08.906Z,-0.73
2023-01-03T14:47:40.094Z,-0.76
2023-01-03T14:50:16.441Z,-0.75
2023-01-03T14:52:48.769Z,-0.75
2023-01-03T14:55:20.210Z,-0.78
2023-01-03T14:57:52.733Z,-0.76
2023-01-03T15:00:31.879Z,-0.76
2023-01-03T15:03:02.683Z,-0.76
2023-01-03T15:05:34.245Z,-0.74
2023-01-03T15:08:21.003Z,-0.73
2023-01-03T15:10:53.120Z,-0.73
2023-01-03T15:13:27.083Z,-0.76
2023-01-03T15:15:57.362Z,-0.76
2023-01-03T15:18:28.361Z,-0.76
2023-01-03T15:20:59.087Z,-0.75
2023-01-03T15:23:40.598Z,-0.77
2023-01-03T15:26:21.231Z,-0.75
2023-01-03T15:28:55.223Z,-0.74
2023-01-03T15:31:31.726Z,-0.75
2023-01-03T15:34:02.364Z,-0.74
2023-01-03T15:36:33.702Z,-0.75
2023-01-03T15:39:03.779Z,-0.70
2023-01-03T15:42:06.451Z,-0.71
2023-01-03T15:44:40.446Z,-0.71
2023-01-03T15:47:10.201Z,-0.71
2023-01-03T15:49:42.882Z,-0.70
2023-01-03T15:52:14.216Z,-0.70
2023-01-03T15:54:46.196Z,-0.67
2023-01-03T15:57:17.872Z,-0.67
2023-01-03T15:59:46.648Z,-0.67
2023-01-03T16:02:17.915Z,-0.68
2023-01-03T16:04:47.384Z,-0.72
2023-01-03T16:07:16.023Z,-0.72
2023-01-03T16:09:46.493Z,-0.73
2023-01-03T16:12:17.701Z,-0.75
2023-01-03T16:14:49.175Z,-0.77
2023-01-03T16:17:24.949Z,-0.76
2023-01-03T16:19:54.599Z,-0.78
2023-01-03T16:22:34.301Z,-0.77
2023-01-03T16:25:06.408Z,-0.78
2023-01-03T16:27:35.101Z,-0.79
2023-01-03T16:30:03.541Z,-0.81
2023-01-03T16:32:32.346Z,-0.78
2023-01-03T16:35:02.746Z,-0.81
2023-01-03T16:37:31.685Z,-0.80
2023-01-03T16:40:00.226Z,-0.78
2023-01-03T16:42:30.307Z,-0.79
2023-01-03T16:44:59.110Z,-0.79
2023-01-03T16:47:31.997Z,-0.78
2023-01-03T16:50:02.519Z,-0.77
2023-01-03T16:52:35.929Z,-0.77
2023-01-03T16:55:07.850Z,-0.79
2023-01-03T16:57:38.128Z,-0.77
2023-01-03T17:00:18.139Z,-0.76
2023-01-03T17:02:47.679Z,-0.78
2023-01-03T17:05:17.155Z,-0.78
2023-01-03T17:07:48.055Z,-0.73
2023-01-03T17:10:27.562Z,-0.78
2023-01-03T17:12:59.287Z,-0.79
2023-01-03T17:15:28.688Z,-0.80
2023-01-03T17:17:57.227Z,-0.82
2023-01-03T17:20:26.169Z,-0.82
2023-01-03T17:22:57.725Z,-0.78
2023-01-03T17:25:26.958Z,-0.80
2023-01-03T17:27:59.546Z,-0.79
2023-01-03T17:30:30.460Z,-0.81
2023-01-03T17:32:58.960Z,-0.82
2023-01-03T17:35:27.909Z,-0.83
2023-01-03T17:38:24.621Z,-0.83
2023-01-03T17:40:49.023Z,-0.84
2023-01-03T17:43:25.092Z,-0.85
2023-01-03T17:46:16.143Z,-0.83
2023-01-03T17:49:06.976Z,-0.83
2023-01-03T17:51:35.532Z,-0.85
2023-01-03T17:54:04.193Z,-0.86
2023-01-03T17:56:33.530Z,-0.85
2023-01-03T17:59:04.988Z,-0.87
2023-01-03T18:01:34.365Z,-0.88
2023-01-03T18:04:03.143Z,-0.90
2023-01-03T18:06:31.788Z,-0.91
2023-01-03T18:09:04.412Z,-0.92
2023-01-03T18:11:33.315Z,-0.92
2023-01-03T18:14:03.645Z,-0.90
2023-01-03T18:16:32.309Z,-0.92
2023-01-03T18:19:00.988Z,-0.94
2023-01-03T18:21:29.526Z,-0.90
2023-01-03T18:24:00.409Z,-0.95
2023-01-03T18:26:33.619Z,-0.96
2023-01-03T18:29:03.646Z,-0.97
2023-01-03T18:31:33.235Z,-0.98
2023-01-03T18:34:04.836Z,-0.99
2023-01-03T18:36:40.301Z,-0.97
2023-01-03T18:39:14.597Z,-0.99
2023-01-03T18:41:43.590Z,-0.97
2023-01-03T18:44:22.499Z,-1.00
2023-01-03T18:46:51.911Z,-0.99
2023-01-03T18:49:21.134Z,-1.01
2023-01-03T18:51:54.253Z,-1.00
2023-01-03T18:54:22.863Z,-1.00
2023-01-03T18:56:51.620Z,-1.01
2023-01-03T18:59:25.097Z,-1.01
2023-01-03T19:01:54.261Z,-1.01
2023-01-03T19:04:23.305Z,-1.03
2023-01-03T19:06:52.278Z,-1.03
2023-01-03T19:09:24.027Z,-1.03
2023-01-03T19:11:54.491Z,-1.04
2023-01-03T19:14:24.616Z,-1.01
2023-01-03T19:16:53.193Z,-1.06
2023-01-03T19:19:24.076Z,-1.02
2023-01-03T19:21:52.812Z,-1.01
2023-01-03T19:24:26.216Z,-0.99
2023-01-03T19:26:58.409Z,-1.03
2023-01-03T19:29:37.337Z,-1.02
2023-01-03T19:32:14.272Z,-1.03
2023-01-03T19:34:42.938Z,-1.04
2023-01-03T19:37:11.836Z,-1.00
2023-01-03T19:39:41.173Z,-1.06
2023-01-03T19:45:30.673Z,-1.06
2023-01-03T19:48:02.545Z,-1.02
2023-01-03T19:50:33.276Z,-1.08
2023-01-03T19:53:03.042Z,-1.02
2023-01-03T19:55:34.328Z,-1.04
2023-01-03T19:58:07.101Z,-1.06
2023-01-03T20:00:37.410Z,-1.00
2023-01-03T20:03:08.387Z,-1.05
2023-01-03T20:05:36.963Z,-1.05
2023-01-03T20:08:12.489Z,-1.06
2023-01-03T20:10:43.417Z,-1.08
2023-01-03T20:13:17.810Z,-1.10
2023-01-03T20:15:49.804Z,-1.08
2023-01-03T20:18:29.868Z,-1.08
2023-01-03T20:21:01.694Z,-1.09
2023-01-03T20:23:34.607Z,-1.11
2023-01-03T20:26:03.869Z,-1.14
2023-01-03T20:28:32.748Z,-1.10
2023-01-03T20:31:03.699Z,-1.15
2023-01-03T20:33:32.084Z,-1.18
2023-01-03T20:36:14.144Z,-1.17
2023-01-03T20:38:46.719Z,-1.17
2023-01-03T20:41:17.471Z,-1.13
2023-01-03T20:43:47.674Z,-1.19
2023-01-03T20:46:21.798Z,-1.18
2023-01-03T20:48:56.929Z,-1.19
2023-01-03T20:51:26.449Z,-1.19
2023-01-03T20:53:55.633Z,-1.22
2023-01-03T20:56:26.774Z,-1.20
2023-01-03T20:58:55.589Z,-1.20
2023-01-03T21:01:26.046Z,-1.20
2023-01-03T21:03:54.874Z,-1.21
2023-01-03T21:06:27.022Z,-1.20
2023-01-03T21:08:54.886Z,-1.21
2023-01-03T21:11:27.924Z,-1.22
2023-01-03T21:13:57.291Z,-1.23
2023-01-03T21:16:37.359Z,-1.23
2023-01-03T21:19:08.732Z,-1.24
2023-01-03T21:21:37.422Z,-1.23
2023-01-03T21:24:07.328Z,-1.24
2023-01-03T21:26:35.982Z,-1.22
2023-01-03T21:29:04.775Z,-1.23
2023-01-03T21:31:36.385Z,-1.23
2023-01-03T21:34:06.699Z,-1.23
2023-01-03T21:36:37.269Z,-1.25
2023-01-03T21:39:06.379Z,-1.24
2023-01-03T21:41:56.932Z,-1.24
2023-01-03T21:44:25.673Z,-1.25
2023-01-03T21:46:55.912Z,-1.25
2023-01-03T21:49:24.787Z,-1.23
2023-01-03T21:51:53.414Z,-1.25
2023-01-03T21:54:22.117Z,-1.23
2023-01-03T21:56:51.131Z,-1.24
2023-01-03T21:59:19.754Z,-1.26
2023-01-03T22:02:06.446Z,-1.25
2023-01-03T22:04:40.673Z,-1.25
2023-01-03T22:07:09.472Z,-1.27
2023-01-03T22:09:55.437Z,-1.26
2023-01-03T22:12:24.348Z,-1.27
2023-01-03T22:14:52.914Z,-1.27
2023-01-03T22:17:21.631Z,-1.24
2023-01-03T22:19:51.832Z,-1.25
2023-01-03T22:22:20.697Z,-1.26
2023-01-03T22:24:49.427Z,-1.28
2023-01-03T22:27:19.770Z,-1.26
2023-01-03T22:29:48.509Z,-1.26
2023-01-03T22:32:17.207Z,-1.27
2023-01-03T22:34:46.033Z,-1.27
2023-01-03T22:37:16.947Z,-1.28
2023-01-03T22:39:45.805Z,-1.26
2023-01-03T22:42:19.356Z,-1.26
2023-01-03T22:44:48.829Z,-1.24
2023-01-03T22:47:17.941Z,-1.22
2023-01-03T22:49:47.172Z,-1.24
2023-01-03T22:52:17.598Z,-1.24
2023-01-03T22:54:46.259Z,-1.26
2023-01-03T22:57:15.133Z,-1.24
2023-01-03T22:59:43.933Z,-1.26
2023-01-03T23:02:13.151Z,-1.26
2023-01-03T23:04:42.079Z,-1.28
2023-01-03T23:07:10.874Z,-1.26
2023-01-03T23:09:41.355Z,-1.27
2023-01-03T23:12:28.826Z,-1.29
2023-01-03T23:14:57.440Z,-1.30
2023-01-03T23:17:43.455Z,-1.31
2023-01-03T23:20:12.606Z,-1.30
2023-01-03T23:22:41.192Z,-1.32
2023-01-03T23:25:11.816Z,-1.30
2023-01-03T23:27:40.410Z,-1.31
2023-01-03T23:30:10.257Z,-1.34
2023-01-03T23:32:38.781Z,-1.33
2023-01-03T23:35:07.900Z,-1.32
2023-01-03T23:37:36.435Z,-1.32
2023-01-03T23:40:05.754Z,-1.31
2023-01-03T23:42:35.867Z,-1.31
2023-01-03T23:45:04.890Z,-1.30
2023-01-03T23:47:33.376Z,-1.32
2023-01-03T23:50:01.814Z,-1.32
2023-01-03T23:52:30.308Z,-1.33
2023-01-03T23:55:03.611Z,-1.34
2023-01-03T23:57:33.802Z,-1.32
